Wingate, TX (79566)

12:42 AM CDT on September 27, 2016 (GMT -0500)
20 Mi. SW of Abilene | | Change Station

Elev 2181 ft 32.26 °N, 100.02 °W | Updated 9 minutes ago

Partly Cloudy
Partly Cloudy
54.2 °F
Feels Like 54.2 °F
N
0.0
Wind Variable Wind from NW
Gusts 0.0 mph

Today
High -- | Low -- °F
--% Chance of Precip.
Yesterday
High -- | Low -- °F
Precip. -- in
Pressure 30.15 in
Visibility 10.0 miles
Clouds Few 23000 ft
Dew Point 52 °F
Humidity 91%
Rainfall 0.00 in
Snow Depth Not available.
7:32 AM 7:29 PM
Waning Crescent, 14% visible
METAR KDYS 270458Z AUTO 32003KT 10SM FEW230 15/10 A3022 RMK AO2 SLP210 T01540102 $
Pressure 30.15 in
Visibility 10.0 miles
Clouds Few 23000 ft
Dew Point 52 °F
Humidity 91%
Rainfall 0.00 in
Snow Depth Not available.
7:32 AM 7:29 PM
Waning Crescent, 14% visible
METAR KDYS 270458Z AUTO 32003KT 10SM FEW230 15/10 A3022 RMK AO2 SLP210 T01540102 $

10-Day Weather Forecast

Almanac

Astronomy

Sep. 27, 2016 Rise Set
Actual Time
Civil Twilight
Nautical Twilight
Astronomical Twilight
Moon
Length of Visible Light
Length of Day
Tomorrow will be .
, % of the Moon is Illuminated

Today's Extremes

State Highs State Lows

Community

WunderPhotos

Upload Photos

1,942,037 photos uploaded!

WunderBlog® & News

Nearby

Air Quality

  Air Quality AQ Index Pollutant
Not available.

Snow Depth

Station Depth Elevation

Earthquake Activity

City Distance Mag. Time & Date
Minimum magnitude displayed is 2.5.

Coastal Water Temperatures

Place Temperature

Stations

Nearby Weather Stations

Station Location Temp. Windchill Dew Point Humidity Wind Precip. Elev Updated Type
                   

Watches & Warnings

There are currently no watches in effect.